Time;durP1;ratioP1;P1;durP2;ratioP2;P2;SDS_P1;SDS_P2;PMS_P1;PMS_P2;Temp;Humidity;BMP_temperature;BMP_pressure;BME280_temperature;BME280_humidity;BME280_pressure;Samples;Min_cycle;Max_cycle;Signal;HPM_P1;HPM_P2
2023/09/17 04:22:35;;;;;;;12.48;8.52;;;;;;;16.98;100.00;100004.34;5130041;27;20326;-67
2023/09/17 04:25:00;;;;;;;13.02;8.15;;;;;;;16.92;100.00;100002.53;5130424;28;20089;-67
2023/09/17 04:27:26;;;;;;;12.32;8.20;;;;;;;16.99;100.00;100000.59;5130205;28;20581;-67
2023/09/17 04:29:52;;;;;;;10.93;8.20;;;;;;;17.04;100.00;100004.28;5129000;28;20118;-67
2023/09/17 04:32:18;;;;;;;12.77;8.60;;;;;;;17.04;100.00;100003.47;5128588;28;20039;-66
2023/09/17 04:34:44;;;;;;;11.38;8.52;;;;;;;17.00;100.00;100021.09;5128903;28;20031;-67
2023/09/17 04:37:10;;;;;;;12.45;9.20;;;;;;;16.95;100.00;100015.53;5130062;28;20616;-67
2023/09/17 04:39:36;;;;;;;12.55;8.18;;;;;;;16.94;100.00;100020.09;5128747;28;20370;-67
2023/09/17 04:42:01;;;;;;;11.05;7.28;;;;;;;16.96;100.00;100025.28;5128565;28;20047;-67
2023/09/17 04:44:28;;;;;;;10.48;7.57;;;;;;;16.97;100.00;100029.59;5128313;28;20035;-66
2023/09/17 04:46:54;;;;;;;10.65;7.60;;;;;;;16.95;100.00;100024.44;5128564;28;20036;-66
2023/09/17 04:49:22;;;;;;;9.27;6.95;;;;;;;16.96;100.00;100036.84;5128537;28;20074;-67
2023/09/17 04:51:48;;;;;;;9.50;7.03;;;;;;;16.94;100.00;100030.84;5128454;28;20422;-67
2023/09/17 04:54:13;;;;;;;9.02;7.35;;;;;;;16.95;100.00;100027.16;5128147;28;20571;-67
2023/09/17 04:56:39;;;;;;;9.88;7.32;;;;;;;16.88;100.00;100029.03;5128317;28;20065;-67
2023/09/17 04:59:04;;;;;;;11.15;7.25;;;;;;;16.97;100.00;100032.31;5128214;28;20088;-67
2023/09/17 05:01:30;;;;;;;8.02;6.65;;;;;;;16.86;100.00;100025.75;5128244;28;20126;-67
2023/09/17 05:03:56;;;;;;;12.73;7.70;;;;;;;16.86;100.00;100025.75;5127967;28;20043;-67
2023/09/17 05:06:22;;;;;;;10.95;7.43;;;;;;;16.85;100.00;100037.56;5128266;28;20038;-67
2023/09/17 05:08:47;;;;;;;9.10;6.82;;;;;;;16.76;100.00;100026.25;5129385;28;20066;-67
2023/09/17 05:11:13;;;;;;;10.50;7.20;;;;;;;16.89;100.00;100033.41;5128081;28;20127;-67
2023/09/17 05:13:38;;;;;;;9.20;6.80;;;;;;;16.94;100.00;100024.66;5127634;28;20070;-67
2023/09/17 05:16:04;;;;;;;10.52;6.70;;;;;;;16.97;100.00;100026.91;5129311;27;20095;-67
2023/09/17 05:18:30;;;;;;;10.55;7.35;;;;;;;16.98;100.00;100026.69;5128019;28;20404;-67
2023/09/17 05:20:55;;;;;;;9.07;6.72;;;;;;;17.01;100.00;100036.19;5127771;27;20531;-67
2023/09/17 05:23:23;;;;;;;11.75;8.00;;;;;;;16.96;100.00;100039.56;5127584;28;20043;-66
2023/09/17 05:25:52;;;;;;;16.27;8.20;;;;;;;16.94;100.00;100040.78;5127806;28;20118;-67
2023/09/17 05:28:18;;;;;;;23.83;10.32;;;;;;;16.94;100.00;100047.00;5128945;28;20118;-66
2023/09/17 05:30:44;;;;;;;10.02;7.45;;;;;;;16.88;100.00;100037.09;5127685;28;20076;-66
2023/09/17 05:33:10;;;;;;;16.93;9.80;;;;;;;16.92;100.00;100043.72;5118005;28;20039;-66
2023/09/17 05:35:36;;;;;;;19.60;9.45;;;;;;;16.92;100.00;100045.59;5113810;28;20082;-67
2023/09/17 05:38:03;;;;;;;11.55;7.43;;;;;;;16.86;100.00;100041.91;5113956;28;20035;-67
2023/09/17 05:40:29;;;;;;;19.40;9.30;;;;;;;16.94;100.00;100054.25;5113755;28;20062;-66
2023/09/17 05:42:57;;;;;;;10.40;7.70;;;;;;;16.92;100.00;100059.03;5113457;28;20063;-67
2023/09/17 05:45:23;;;;;;;9.43;7.28;;;;;;;16.93;100.00;100056.13;5114820;28;20028;-66
2023/09/17 05:47:49;;;;;;;11.20;7.63;;;;;;;16.98;100.00;100055.47;5113722;28;20036;-66
2023/09/17 05:50:14;;;;;;;11.15;8.35;;;;;;;16.96;100.00;100055.69;5113724;28;20039;-67
2023/09/17 05:52:40;;;;;;;10.65;7.70;;;;;;;16.98;100.00;100061.66;5113350;28;20028;-67
2023/09/17 05:55:07;;;;;;;11.95;7.63;;;;;;;16.99;100.00;100057.09;5113603;28;20406;-67
2023/09/17 05:57:33;;;;;;;10.18;7.97;;;;;;;17.07;100.00;100054.13;5113428;28;20085;-67
2023/09/17 05:59:59;;;;;;;10.93;7.15;;;;;;;17.08;100.00;100061.16;5113497;28;20036;-67
2023/09/17 06:02:27;;;;;;;11.80;8.32;;;;;;;17.03;100.00;100059.16;5112836;28;20103;-65
2023/09/17 06:04:55;;;;;;;19.42;13.25;;;;;;;17.02;100.00;100065.59;5113403;28;20039;-65
2023/09/17 06:07:21;;;;;;;9.85;7.28;;;;;;;17.00;100.00;100059.56;5114511;28;20465;-65
2023/09/17 06:09:46;;;;;;;9.13;7.07;;;;;;;17.04;100.00;100058.09;5113295;28;20040;-65
2023/09/17 06:12:12;;;;;;;10.15;7.22;;;;;;;17.01;100.00;100055.00;5112953;28;20092;-65
2023/09/17 06:14:39;;;;;;;9.05;7.07;;;;;;;17.03;100.00;100061.84;5113303;28;20036;-66
2023/09/17 06:17:04;;;;;;;9.35;7.35;;;;;;;17.11;100.00;100054.53;5113170;28;20104;-66
2023/09/17 06:19:31;;;;;;;10.85;7.78;;;;;;;17.14;100.00;100059.47;5113182;28;20490;-65
2023/09/17 06:21:56;;;;;;;11.88;8.95;;;;;;;17.23;100.00;100064.34;5112972;28;20063;-66
2023/09/17 06:24:22;;;;;;;9.90;7.97;;;;;;;17.28;100.00;100066.41;5114079;28;20510;-66
2023/09/17 06:26:47;;;;;;;9.40;7.70;;;;;;;17.37;100.00;100073.13;5112908;28;20497;-66
2023/09/17 06:29:13;;;;;;;10.88;7.90;;;;;;;17.47;100.00;100059.13;5114470;28;20049;-66
2023/09/17 06:31:40;;;;;;;12.98;7.97;;;;;;;17.56;100.00;100063.22;5112940;28;20114;-66
2023/09/17 06:34:05;;;;;;;16.83;12.25;;;;;;;17.68;100.00;100060.59;5112671;28;20031;-66
2023/09/17 06:36:31;;;;;;;10.15;8.43;;;;;;;17.76;100.00;100058.47;5112708;28;20039;-67
2023/09/17 06:38:56;;;;;;;9.50;7.57;;;;;;;17.86;100.00;100063.31;5112751;28;20414;-61
2023/09/17 06:41:22;;;;;;;11.23;8.25;;;;;;;17.98;100.00;100058.81;5113934;28;20043;-61
2023/09/17 06:43:47;;;;;;;9.75;6.88;;;;;;;18.08;100.00;100052.91;5112768;28;20039;-60
2023/09/17 06:46:13;;;;;;;9.20;7.68;;;;;;;18.22;100.00;100067.84;5113465;28;20126;-60
2023/09/17 06:48:38;;;;;;;8.88;5.78;;;;;;;18.34;100.00;100065.22;5113637;28;20044;-61
2023/09/17 06:51:03;;;;;;;7.32;5.85;;;;;;;18.43;100.00;100055.72;5113654;28;20048;-60
2023/09/17 06:53:29;;;;;;;7.00;6.00;;;;;;;18.49;100.00;100054.00;5113388;28;20035;-60
2023/09/17 06:55:56;;;;;;;9.68;6.70;;;;;;;18.60;100.00;100059.44;5113627;28;20070;-56
2023/09/17 06:58:21;;;;;;;10.23;6.22;;;;;;;18.67;100.00;100054.78;5113653;28;20035;-56
2023/09/17 07:00:47;;;;;;;6.38;5.20;;;;;;;18.77;100.00;100048.00;5114381;27;20054;-57
2023/09/17 07:03:13;;;;;;;7.63;6.20;;;;;;;18.88;100.00;100055.31;5114569;27;20039;-58
2023/09/17 07:05:41;;;;;;;12.50;8.68;;;;;;;18.96;100.00;100050.38;5121336;27;20046;-55
2023/09/17 07:08:06;;;;;;;8.98;6.93;;;;;;;19.06;100.00;100049.00;5118104;27;20102;-54
2023/09/17 07:10:32;;;;;;;8.13;5.78;;;;;;;19.13;100.00;100047.81;5118261;27;20031;-57
2023/09/17 07:12:58;;;;;;;6.73;5.37;;;;;;;19.26;100.00;100052.19;5112469;28;20084;-58
2023/09/17 07:15:25;;;;;;;8.35;6.35;;;;;;;19.35;100.00;100056.16;5113361;28;20047;-58
2023/09/17 07:17:52;;;;;;;7.38;6.57;;;;;;;19.44;100.00;100049.34;5113380;28;20046;-58
2023/09/17 07:20:19;;;;;;;7.45;5.30;;;;;;;19.50;100.00;100055.69;5113120;28;20066;-56
2023/09/17 07:22:45;;;;;;;6.47;4.50;;;;;;;19.57;100.00;100074.50;5112864;28;20048;-58
2023/09/17 07:25:11;;;;;;;6.63;5.20;;;;;;;19.62;100.00;100070.03;5113204;28;20444;-58
2023/09/17 07:27:36;;;;;;;7.93;5.53;;;;;;;19.71;100.00;100075.91;5113210;28;20088;-58
2023/09/17 07:30:02;;;;;;;7.38;4.80;;;;;;;19.78;100.00;100074.72;5113212;28;20062;-58
2023/09/17 07:32:28;;;;;;;6.38;4.55;;;;;;;19.86;100.00;100075.41;5112703;28;20114;-56
2023/09/17 07:34:55;;;;;;;8.40;4.25;;;;;;;19.93;100.00;100073.38;5112936;28;20437;-59
2023/09/17 07:37:21;;;;;;;4.88;4.30;;;;;;;20.03;100.00;100079.00;5112763;28;20531;-58
2023/09/17 07:39:58;;;;;;;6.03;4.00;;;;;;;20.16;100.00;100086.84;5112834;28;20051;-57
2023/09/17 07:42:23;;;;;;;6.25;4.80;;;;;;;20.28;100.00;100079.53;5112547;28;20063;-59
2023/09/17 07:44:48;;;;;;;6.05;4.95;;;;;;;20.42;100.00;100079.25;5112743;28;20130;-57
2023/09/17 07:47:14;;;;;;;6.63;5.38;;;;;;;20.53;100.00;100084.59;5112722;28;20039;-58
2023/09/17 07:49:39;;;;;;;7.13;4.90;;;;;;;20.64;100.00;100085.63;5112274;28;20057;-57
2023/09/17 07:52:06;;;;;;;5.53;4.53;;;;;;;20.75;100.00;100092.03;5112078;28;20125;-58
2023/09/17 07:54:42;;;;;;;7.32;6.03;;;;;;;20.88;100.00;100097.16;5112003;28;20028;-57
2023/09/17 07:57:15;;;;;;;6.88;5.68;;;;;;;20.96;100.00;100093.22;5112055;28;20063;-55
2023/09/17 07:59:40;;;;;;;10.27;5.60;;;;;;;21.10;100.00;100098.06;5110034;28;20118;-54
2023/09/17 08:02:06;;;;;;;9.32;4.95;;;;;;;21.22;100.00;100094.44;5112099;28;20111;-58
2023/09/17 08:04:31;;;;;;;5.53;5.03;;;;;;;21.33;99.65;100099.81;5111628;28;20035;-56
2023/09/17 08:06:57;;;;;;;5.43;4.50;;;;;;;21.47;99.80;100096.78;5111863;28;20039;-56
2023/09/17 08:09:23;;;;;;;7.97;5.15;;;;;;;21.59;97.34;100094.78;5111585;28;20067;-53
2023/09/17 08:11:49;;;;;;;6.82;5.13;;;;;;;21.73;97.81;100095.25;5111605;28;20440;-58
2023/09/17 08:14:14;;;;;;;7.65;5.40;;;;;;;21.85;96.78;100101.38;5111067;28;20023;-56
2023/09/17 08:16:40;;;;;;;8.00;5.22;;;;;;;21.93;95.66;100100.94;5111984;28;20035;-58
2023/09/17 08:19:06;;;;;;;6.05;4.95;;;;;;;22.06;95.29;100102.47;5111921;28;20457;-58
2023/09/17 08:21:32;;;;;;;6.43;4.70;;;;;;;22.12;95.25;100096.06;5111772;28;20501;-59
2023/09/17 08:23:58;;;;;;;6.07;4.68;;;;;;;22.22;94.40;100098.88;5111440;28;20073;-56
2023/09/17 08:26:27;;;;;;;5.43;4.60;;;;;;;22.29;93.10;100093.25;5111729;28;20500;-56
2023/09/17 08:28:55;;;;;;;5.00;4.50;;;;;;;22.34;93.70;100087.88;5111778;28;20085;-57
2023/09/17 08:31:22;;;;;;;5.85;4.47;;;;;;;22.47;92.48;100090.22;5111799;28;20066;-58
2023/09/17 08:33:48;;;;;;;5.78;4.50;;;;;;;22.53;90.36;100083.75;5111648;28;20031;-58
2023/09/17 08:36:14;;;;;;;5.07;4.15;;;;;;;22.64;89.24;100081.97;5111836;28;20028;-58
2023/09/17 08:38:40;;;;;;;4.65;4.05;;;;;;;22.78;89.90;100087.81;5110697;28;20425;-57
2023/09/17 08:41:07;;;;;;;4.32;3.63;;;;;;;22.86;87.28;100088.19;5111903;28;20024;-53
2023/09/17 08:43:33;;;;;;;5.65;3.72;;;;;;;22.94;85.81;100086.88;5111599;28;20038;-56
2023/09/17 08:46:00;;;;;;;6.07;4.07;;;;;;;23.06;86.00;100092.97;5111671;28;20111;-56
2023/09/17 08:48:26;;;;;;;;;;;;;;;23.22;86.72;100100.19;5112211;28;20046;-57
2023/09/17 08:50:53;;;;;;;6.05;4.10;;;;;;;23.31;86.45;100092.34;5111670;28;20282;-55
2023/09/17 08:53:26;;;;;;;4.18;3.42;;;;;;;23.37;84.87;100090.50;5111424;28;20031;-56
2023/09/17 08:55:57;;;;;;;6.80;3.53;;;;;;;23.49;81.13;100088.41;5111718;28;20035;-57
2023/09/17 08:58:31;;;;;;;4.72;3.28;;;;;;;23.56;81.21;100083.56;5110678;28;20064;-56
2023/09/17 09:01:01;;;;;;;6.47;3.53;;;;;;;23.82;86.79;100076.38;5108997;28;20051;-57
2023/09/17 09:03:28;;;;;;;4.28;3.78;;;;;;;23.86;80.62;100080.19;5111414;28;20043;-55
2023/09/17 09:05:55;;;;;;;3.80;2.88;;;;;;;23.89;79.20;100082.41;5111585;28;20489;-58
2023/09/17 09:08:23;;;;;;;4.50;3.10;;;;;;;23.94;78.12;100078.91;5113700;28;20057;-58
2023/09/17 09:10:50;;;;;;;4.28;3.58;;;;;;;24.02;77.81;100076.47;5115494;28;20036;-57
2023/09/17 09:13:17;;;;;;;3.80;3.40;;;;;;;24.06;79.05;100083.03;5115135;28;20015;-58
2023/09/17 09:15:43;;;;;;;3.85;3.35;;;;;;;24.14;77.09;100078.97;5115124;28;20098;-56
2023/09/17 09:18:08;;;;;;;7.30;3.28;;;;;;;24.25;75.44;100079.81;5115204;28;20032;-56
2023/09/17 09:20:36;;;;;;;4.78;3.20;;;;;;;24.38;75.85;100083.94;5115174;28;20028;-53
2023/09/17 09:23:02;;;;;;;4.70;3.03;;;;;;;24.47;75.07;100077.72;5114721;28;20055;-58
2023/09/17 09:25:28;;;;;;;3.38;3.03;;;;;;;24.56;75.26;100072.56;5114708;28;20068;-59
2023/09/17 09:28:06;;;;;;;5.20;3.17;;;;;;;24.80;74.58;100070.16;5114869;28;20027;-57
2023/09/17 09:30:32;;;;;;;6.65;2.92;;;;;;;24.88;71.46;100070.41;5112390;28;20398;-57
2023/09/17 09:32:58;;;;;;;3.75;3.00;;;;;;;24.97;74.12;100069.88;5114686;28;20039;-59
2023/09/17 09:35:24;;;;;;;3.22;2.92;;;;;;;25.17;69.73;100057.09;5114818;28;20387;-57
2023/09/17 09:37:51;;;;;;;4.15;2.80;;;;;;;25.35;72.70;100057.63;5114720;28;20020;-59
2023/09/17 09:40:17;;;;;;;3.70;2.58;;;;;;;25.57;70.79;100058.13;5114696;27;20131;-58
2023/09/17 09:42:42;;;;;;;4.13;2.72;;;;;;;26.12;70.03;100069.94;5113296;28;20027;-59
2023/09/17 09:45:17;;;;;;;3.33;2.83;;;;;;;26.34;68.28;100063.28;5114558;28;20028;-58
2023/09/17 09:47:47;;;;;;;3.90;2.85;;;;;;;26.54;69.58;100074.13;5114755;28;20038;-60
2023/09/17 09:50:27;;;;;;;2.78;2.40;;;;;;;26.47;64.16;100057.22;5112279;28;20036;-59
2023/09/17 09:52:53;;;;;;;2.95;2.65;;;;;;;26.53;63.66;100050.63;5111769;28;20035;-60
2023/09/17 09:55:27;;;;;;;3.38;2.80;;;;;;;26.76;61.37;100051.84;5114432;28;20024;-59
2023/09/17 09:57:53;;;;;;;5.22;2.67;;;;;;;27.04;60.59;100058.44;5112183;28;20050;-59
2023/09/17 10:00:26;;;;;;;4.55;2.65;;;;;;;27.36;59.41;100057.06;5114549;28;20474;-57
2023/09/17 10:02:52;;;;;;;2.95;2.40;;;;;;;28.26;60.63;100054.38;5112103;28;20382;-59
2023/09/17 10:05:33;;;;;;;4.85;2.63;;;;;;;28.65;54.40;100056.03;5114341;28;20039;-58
2023/09/17 10:07:58;;;;;;;6.97;5.22;;;;;;;28.95;53.05;100049.25;5112673;28;20035;-58
2023/09/17 10:10:24;;;;;;;3.75;2.75;;;;;;;29.36;53.38;100040.31;5114168;28;20165;-59
2023/09/17 10:12:52;;;;;;;4.30;2.72;;;;;;;29.65;50.53;100037.31;5114254;28;20039;-59
2023/09/17 10:15:18;;;;;;;7.97;4.20;;;;;;;30.06;50.26;100039.19;5114467;28;20040;-60
2023/09/17 10:17:44;;;;;;;6.10;3.10;;;;;;;30.63;47.90;100042.31;5114482;28;20040;-60
2023/09/17 10:20:11;;;;;;;5.20;2.38;;;;;;;30.85;45.67;100033.31;5114355;28;20043;-61
2023/09/17 10:22:38;;;;;;;3.85;2.60;;;;;;;30.95;44.90;100035.78;5114195;28;20027;-60
2023/09/17 10:25:06;;;;;;;5.93;2.60;;;;;;;31.07;43.34;100036.03;5114424;28;20042;-59
2023/09/17 10:27:36;;;;;;;6.70;2.65;;;;;;;31.19;43.79;100035.47;5114367;28;20024;-60
2023/09/17 10:30:03;;;;;;;5.05;2.88;;;;;;;31.47;44.57;100034.16;5114389;28;20092;-60
2023/09/17 10:32:31;;;;;;;3.80;2.33;;;;;;;31.08;45.08;100029.41;5113763;28;20071;-60
2023/09/17 10:34:59;;;;;;;3.08;2.55;;;;;;;31.36;44.40;100027.28;5114212;28;20443;-60
2023/09/17 10:37:26;;;;;;;4.75;2.35;;;;;;;31.61;42.37;100020.28;5113953;28;20047;-59
2023/09/17 10:39:54;;;;;;;4.80;2.20;;;;;;;31.73;43.14;100014.97;5114086;28;20058;-60
2023/09/17 10:42:20;;;;;;;5.00;2.22;;;;;;;31.76;42.36;100011.59;5113792;28;20057;-59
2023/09/17 10:44:49;;;;;;;4.85;2.17;;;;;;;31.74;42.02;100007.53;5113944;28;20039;-60
2023/09/17 10:47:18;;;;;;;2.75;1.90;;;;;;;31.75;42.94;99998.94;5113724;28;20456;-60
2023/09/17 10:49:43;;;;;;;4.18;2.20;;;;;;;32.13;41.89;99999.19;5112665;28;20040;-60
2023/09/17 10:52:11;;;;;;;6.53;2.40;;;;;;;32.30;41.51;99998.41;5113673;28;20046;-60
2023/09/17 10:54:37;;;;;;;6.07;2.83;;;;;;;32.58;38.77;100001.66;5114026;28;20035;-59
2023/09/17 10:57:11;;;;;;;6.40;2.50;;;;;;;32.65;38.29;100001.16;5113771;28;20126;-60
2023/09/17 10:59:37;;;;;;;6.22;2.17;;;;;;;32.74;37.44;99996.47;5113717;28;20108;-60
2023/09/17 11:02:05;;;;;;;5.03;2.25;;;;;;;32.99;38.10;99994.78;5113613;28;20093;-60
2023/09/17 11:04:31;;;;;;;4.32;2.25;;;;;;;32.71;38.58;99996.28;5113257;28;20077;-60
2023/09/17 11:07:00;;;;;;;;;;;;;;;33.41;38.88;100000.50;5113975;28;20040;-60
2023/09/17 11:09:26;;;;;;;4.97;2.20;;;;;;;33.28;36.62;99998.75;5113530;28;19921;-59
2023/09/17 11:11:52;;;;;;;6.03;2.53;;;;;;;33.31;37.50;99993.38;5113299;28;20398;-59
2023/09/17 11:14:18;;;;;;;6.43;2.00;;;;;;;33.27;36.03;99988.88;5113095;28;20506;-60
2023/09/17 11:16:47;;;;;;;8.40;2.90;;;;;;;33.24;36.60;99992.25;5112951;28;20035;-60
2023/09/17 11:19:21;;;;;;;6.80;2.20;;;;;;;33.04;37.39;99983.56;5113267;28;20156;-60
2023/09/17 11:22:06;;;;;;;5.90;2.30;;;;;;;33.49;37.07;99996.91;5113173;28;20032;-61
2023/09/17 11:24:32;;;;;;;6.03;2.38;;;;;;;33.44;37.76;99992.38;5113270;28;20371;-61
2023/09/17 11:27:01;;;;;;;6.47;2.83;;;;;;;33.71;38.07;99991.09;5113045;28;20042;-61
2023/09/17 11:29:41;;;;;;;5.43;2.25;;;;;;;33.59;36.96;99988.25;5113047;28;20109;-61
2023/09/17 11:32:07;;;;;;;7.32;2.05;;;;;;;33.46;37.20;99984.56;5112480;28;20126;-60
2023/09/17 11:34:35;;;;;;;9.18;2.60;;;;;;;33.24;38.31;99989.50;5112752;28;20057;-60
2023/09/17 11:37:03;;;;;;;7.30;2.28;;;;;;;33.26;37.27;99984.50;5112845;28;20028;-59
2023/09/17 11:39:29;;;;;;;6.07;2.40;;;;;;;33.35;37.87;99986.06;5112754;28;20040;-59
2023/09/17 11:42:12;;;;;;;7.07;2.93;;;;;;;33.44;39.00;99978.56;5112799;28;20051;-60
2023/09/17 11:44:38;;;;;;;9.30;6.88;;;;;;;33.40;37.51;99968.53;5112825;28;20378;-60
2023/09/17 11:47:05;;;;;;;10.40;5.70;;;;;;;33.36;38.56;99978.59;5112672;28;20042;-60
2023/09/17 11:49:32;;;;;;;5.60;2.67;;;;;;;32.62;40.62;99975.06;5112667;28;20550;-60
2023/09/17 11:51:59;;;;;;;8.80;4.55;;;;;;;32.76;38.69;99972.09;5112568;28;20046;-60
2023/09/17 11:54:31;;;;;;;6.50;2.63;;;;;;;32.76;38.72;99971.31;5112507;28;20193;-60
2023/09/17 11:56:56;;;;;;;6.28;3.38;;;;;;;32.73;39.71;99958.16;5112590;28;20031;-60
2023/09/17 11:59:24;;;;;;;5.90;2.60;;;;;;;33.05;39.18;99963.13;5112662;28;20443;-58
2023/09/17 12:01:54;;;;;;;7.05;2.50;;;;;;;33.03;39.23;99959.09;5113037;28;20050;-60
2023/09/17 12:04:25;;;;;;;6.20;3.15;;;;;;;33.52;38.90;99963.13;5112322;28;20031;-60
2023/09/17 12:06:52;;;;;;;13.25;3.33;;;;;;;33.63;37.86;99960.75;5112407;28;20069;-58
2023/09/17 12:12:36;;;;;;;6.05;2.28;;;;;;;33.84;37.35;99961.59;5111973;28;20035;-58
2023/09/17 12:15:06;;;;;;;6.13;2.28;;;;;;;34.31;37.54;99957.88;5112339;28;20027;-56
2023/09/17 12:17:34;;;;;;;8.60;2.42;;;;;;;34.53;36.28;99957.50;5112488;28;20111;-60
2023/09/17 12:23:27;;;;;;;11.38;2.78;;;;;;;34.88;34.87;99949.63;5111334;28;20134;-57
2023/09/17 12:25:52;;;;;;;6.78;2.78;;;;;;;34.88;36.09;99954.38;5108240;28;20417;-58
2023/09/17 12:28:28;;;;;;;8.03;3.17;;;;;;;34.56;35.87;99937.47;5110968;28;20023;-58
2023/09/17 12:30:54;;;;;;;7.53;2.78;;;;;;;34.33;36.55;99931.50;5110476;28;20478;-58
2023/09/17 12:33:20;;;;;;;9.65;3.42;;;;;;;34.61;35.92;99934.47;5110043;28;20044;-57
2023/09/17 12:35:45;;;;;;;7.80;2.80;;;;;;;35.28;35.16;99937.97;5111041;28;20084;-57
2023/09/17 12:38:11;;;;;;;4.67;2.50;;;;;;;35.65;34.45;99924.09;5110435;28;20035;-58
2023/09/17 12:40:37;;;;;;;6.27;3.60;;;;;;;35.82;35.13;99923.84;5089877;28;20031;-58
2023/09/17 12:43:02;;;;;;;8.40;2.70;;;;;;;36.10;33.41;99929.44;5112472;28;20443;-57
2023/09/17 12:45:28;;;;;;;8.57;2.70;;;;;;;35.98;34.39;99929.47;5115826;28;20061;-59
2023/09/17 12:47:53;;;;;;;8.87;4.43;;;;;;;36.09;33.81;99936.13;5115589;28;20281;-58
2023/09/17 12:50:19;;;;;;;8.70;3.50;;;;;;;35.76;34.93;99928.81;5097404;28;20142;-58
2023/09/17 12:52:45;;;;;;;6.40;2.67;;;;;;;35.23;35.33;99940.97;5111093;28;20042;-57
2023/09/17 12:55:11;;;;;;;5.43;2.23;;;;;;;35.46;34.66;99941.31;5115463;28;20032;-58
2023/09/17 12:57:37;;;;;;;8.02;2.70;;;;;;;35.72;33.89;99927.09;5115782;28;20039;-59
2023/09/17 13:00:06;;;;;;;5.80;2.58;;;;;;;36.26;32.92;99923.97;5115836;28;20107;-58
2023/09/17 13:02:32;;;;;;;5.68;2.70;;;;;;;36.48;32.70;99926.16;5113741;28;20065;-60
2023/09/17 13:04:58;;;;;;;7.68;2.90;;;;;;;36.38;32.26;99915.56;5115212;28;20039;-58
2023/09/17 13:07:26;;;;;;;4.38;2.20;;;;;;;36.69;31.42;99917.59;5115561;28;20087;-58
2023/09/17 13:09:59;;;;;;;5.30;2.33;;;;;;;36.25;32.99;99911.22;5115447;28;20036;-58
2023/09/17 13:12:25;;;;;;;6.15;3.17;;;;;;;36.64;33.06;99918.66;5114830;28;20039;-59
2023/09/17 13:14:52;;;;;;;7.38;2.55;;;;;;;36.71;32.35;99909.72;5096793;28;20124;-56
2023/09/17 13:17:19;;;;;;;5.68;2.47;;;;;;;36.17;31.41;99907.47;5115307;28;20118;-57
2023/09/17 13:19:45;;;;;;;7.28;2.40;;;;;;;36.10;31.48;99904.50;5115416;28;20500;-57
2023/09/17 13:22:11;;;;;;;6.50;2.50;;;;;;;36.92;30.90;99901.19;5114644;28;20114;-56
2023/09/17 13:24:37;;;;;;;6.63;2.60;;;;;;;36.82;31.47;99891.41;5113977;28;20168;-56
2023/09/17 13:27:05;;;;;;;7.57;2.30;;;;;;;37.11;31.00;99892.16;5115130;28;20039;-54
2023/09/17 13:29:40;;;;;;;4.30;2.67;;;;;;;37.12;31.00;99883.44;5115174;28;20036;-57
2023/09/17 13:32:10;;;;;;;5.88;2.40;;;;;;;37.62;30.85;99883.78;5114969;28;20163;-58
2023/09/17 13:34:42;;;;;;;7.80;2.53;;;;;;;36.62;31.42;99879.41;5115266;28;20099;-58
2023/09/17 13:37:08;;;;;;;7.05;2.20;;;;;;;36.27;32.13;99882.00;5115190;28;20027;-58
2023/09/17 13:39:38;;;;;;;6.95;2.42;;;;;;;36.69;31.77;99876.00;5114897;28;20026;-58
2023/09/17 13:42:03;;;;;;;7.85;2.97;;;;;;;36.89;30.40;99874.16;5114763;28;20039;-59
2023/09/17 13:44:29;;;;;;;6.45;2.30;;;;;;;37.01;32.01;99873.25;5114414;28;20036;-57
2023/09/17 13:46:55;;;;;;;8.90;3.10;;;;;;;37.49;30.17;99869.22;5114807;28;20097;-59
2023/09/17 13:49:21;;;;;;;7.35;2.90;;;;;;;36.24;32.04;99860.53;5114802;28;20153;-58
2023/09/17 13:51:48;;;;;;;6.60;2.33;;;;;;;37.12;30.41;99860.44;5114709;28;20565;-55
2023/09/17 13:54:13;;;;;;;5.05;2.35;;;;;;;37.67;29.78;99855.72;5113491;28;20039;-58
2023/09/17 13:56:39;;;;;;;4.63;2.13;;;;;;;37.26;29.97;99851.63;5113479;28;20039;-58
2023/09/17 13:59:04;;;;;;;5.80;2.27;;;;;;;36.57;30.66;99842.78;5114678;28;20490;-56
2023/09/17 14:01:30;;;;;;;7.13;2.77;;;;;;;36.40;31.99;99841.19;5114791;28;20593;-57
2023/09/17 14:03:55;;;;;;;5.50;2.30;;;;;;;35.57;32.74;99832.50;5113794;28;20040;-56
2023/09/17 14:06:21;;;;;;;10.70;2.63;;;;;;;34.80;33.22;99832.41;5114500;28;20111;-58
2023/09/17 14:08:46;;;;;;;8.37;2.50;;;;;;;34.13;34.46;99821.81;5114375;28;20405;-57
2023/09/17 14:11:12;;;;;;;5.90;2.43;;;;;;;33.79;35.50;99815.44;5114127;28;20055;-58
2023/09/17 14:13:38;;;;;;;7.53;2.40;;;;;;;33.79;36.42;99818.19;5113665;28;20059;-58
2023/09/17 14:16:04;;;;;;;;;;;;;;;33.74;35.58;99810.94;5114576;28;20023;-58
2023/09/17 14:18:29;;;;;;;10.07;3.03;;;;;;;33.38;36.04;99816.22;5114333;28;20310;-58
2023/09/17 14:20:55;;;;;;;8.73;3.03;;;;;;;33.11;39.24;99810.06;5114148;28;20035;-55
2023/09/17 14:23:21;;;;;;;9.43;2.60;;;;;;;32.42;37.91;99804.06;5113474;28;20046;-59
2023/09/17 14:25:47;;;;;;;10.27;2.53;;;;;;;32.11;37.27;99800.38;5113862;28;20035;-60
2023/09/17 14:28:14;;;;;;;6.10;2.63;;;;;;;32.00;38.77;99792.78;5113790;28;20114;-60
2023/09/17 14:30:39;;;;;;;5.65;2.63;;;;;;;32.10;37.61;99795.22;5112844;28;20281;-59
2023/09/17 14:33:04;;;;;;;8.43;2.47;;;;;;;32.00;39.12;99790.03;5111870;28;20036;-59
2023/09/17 14:35:30;;;;;;;8.27;3.20;;;;;;;31.91;40.94;99789.25;5112790;28;20035;-46
2023/09/17 14:37:55;;;;;;;16.30;3.47;;;;;;;31.86;42.13;99784.72;5112727;28;20115;-48
2023/09/17 14:40:21;;;;;;;10.97;2.73;;;;;;;31.54;40.30;99778.56;5112005;28;20494;-51
2023/09/17 14:42:46;;;;;;;6.57;2.70;;;;;;;31.04;40.25;99780.94;5108203;28;20359;-56
2023/09/17 14:45:12;;;;;;;6.47;2.23;;;;;;;31.05;41.69;99785.28;5109552;28;20041;-48
2023/09/17 14:47:42;;;;;;;12.37;2.63;;;;;;;31.04;42.37;99775.44;5112642;28;20024;-49
2023/09/17 14:50:09;;;;;;;5.30;2.38;;;;;;;30.97;40.67;99775.91;5111619;28;20359;-48
2023/09/17 14:52:35;;;;;;;5.28;2.20;;;;;;;30.81;40.93;99771.97;5111608;28;20213;-47
2023/09/17 14:55:02;;;;;;;8.73;3.00;;;;;;;30.96;43.07;99763.25;5112312;28;20042;-54
2023/09/17 14:57:28;;;;;;;6.05;2.67;;;;;;;30.95;41.15;99760.84;5112173;28;20043;-59
2023/09/17 14:59:55;;;;;;;5.80;2.47;;;;;;;31.04;40.59;99759.72;5093613;28;20032;-57
2023/09/17 15:02:21;;;;;;;5.88;2.10;;;;;;;30.87;40.49;99770.69;5110254;28;20027;-58
2023/09/17 15:04:46;;;;;;;5.93;2.50;;;;;;;30.99;40.25;99767.31;5093705;28;20097;-58
2023/09/17 15:07:12;;;;;;;7.50;2.40;;;;;;;30.80;39.93;99756.59;5111792;28;20066;-59
2023/09/17 15:09:37;;;;;;;7.03;2.40;;;;;;;30.93;40.67;99755.66;5109286;28;20119;-59
2023/09/17 15:12:03;;;;;;;5.18;2.78;;;;;;;31.00;40.76;99747.75;5112833;28;20390;-59
2023/09/17 15:14:29;;;;;;;4.73;2.40;;;;;;;30.94;40.02;99748.22;5112768;28;20545;-57
2023/09/17 15:16:55;;;;;;;9.13;2.20;;;;;;;30.67;41.49;99741.00;5113219;28;20537;-57
2023/09/17 15:19:20;;;;;;;6.17;2.80;;;;;;;30.83;41.86;99742.19;5113242;28;20514;-56
2023/09/17 15:21:46;;;;;;;5.47;2.30;;;;;;;30.71;42.20;99744.75;5112961;28;20281;-58
2023/09/17 15:24:11;;;;;;;6.80;2.10;;;;;;;30.76;42.18;99742.66;5112375;28;20035;-56
2023/09/17 15:26:37;;;;;;;6.82;2.50;;;;;;;30.68;42.29;99740.72;5112830;28;20050;-57
2023/09/17 15:29:03;;;;;;;9.40;2.60;;;;;;;30.68;42.36;99735.22;5113049;28;20039;-59
2023/09/17 15:31:36;;;;;;;5.30;2.58;;;;;;;30.71;43.37;99742.00;5111995;28;20513;-59
2023/09/17 15:34:03;;;;;;;6.20;2.88;;;;;;;30.70;42.11;99745.88;5112230;28;20066;-59
2023/09/17 15:36:29;;;;;;;6.50;2.53;;;;;;;30.72;42.86;99747.22;5112662;28;20173;-58
2023/09/17 15:38:55;;;;;;;6.40;2.58;;;;;;;30.45;42.55;99745.47;5113022;28;20398;-57
2023/09/17 15:41:20;;;;;;;8.73;2.33;;;;;;;30.54;42.80;99734.50;5112867;28;20031;-57
2023/09/17 15:43:46;;;;;;;6.15;2.60;;;;;;;30.41;42.63;99738.19;5111752;28;20042;-57
2023/09/17 15:46:11;;;;;;;6.50;2.50;;;;;;;30.51;43.21;99741.44;5112680;28;20093;-58
2023/09/17 15:48:36;;;;;;;7.45;2.58;;;;;;;30.49;43.67;99738.19;5112626;28;20081;-58
2023/09/17 15:51:03;;;;;;;7.28;3.55;;;;;;;30.42;42.71;99731.56;5112478;28;20521;-58